sensor_id;sensor_type;location;lat;lon;timestamp;pressure;altitude;pressure_sealevel;temperature;humidity
70488;BME280;57976;48.174;16.370;2023-10-09T00:01:37;100144.48;;;13.08;99.69
70488;BME280;57976;48.174;16.370;2023-10-09T00:03:43;100151.94;;;13.04;100.00
70488;BME280;57976;48.174;16.370;2023-10-09T00:05:49;100156.68;;;13.03;100.00
70488;BME280;57976;48.174;16.370;2023-10-09T00:07:53;100160.52;;;13.00;100.00
70488;BME280;57976;48.174;16.370;2023-10-09T00:09:59;100160.79;;;12.98;100.00
70488;BME280;57976;48.174;16.370;2023-10-09T00:12:04;100157.86;;;13.00;100.00
70488;BME280;57976;48.174;16.370;2023-10-09T00:14:12;100156.27;;;13.05;100.00
70488;BME280;57976;48.174;16.370;2023-10-09T00:16:18;100161.77;;;13.11;100.00
70488;BME280;57976;48.174;16.370;2023-10-09T00:18:24;100154.91;;;13.15;100.00
70488;BME280;57976;48.174;16.370;2023-10-09T00:20:29;100152.80;;;13.18;100.00
70488;BME280;57976;48.174;16.370;2023-10-09T00:22:34;100142.66;;;13.18;100.00
70488;BME280;57976;48.174;16.370;2023-10-09T00:24:39;100139.13;;;13.19;100.00
70488;BME280;57976;48.174;16.370;2023-10-09T00:26:47;100144.08;;;13.22;100.00
70488;BME280;57976;48.174;16.370;2023-10-09T00:28:52;100144.27;;;13.29;100.00
70488;BME280;57976;48.174;16.370;2023-10-09T00:30:57;100146.70;;;13.36;100.00
70488;BME280;57976;48.174;16.370;2023-10-09T00:33:01;100147.93;;;13.41;100.00
70488;BME280;57976;48.174;16.370;2023-10-09T00:35:07;100148.61;;;13.45;100.00
70488;BME280;57976;48.174;16.370;2023-10-09T00:37:12;100140.39;;;13.48;100.00
70488;BME280;57976;48.174;16.370;2023-10-09T00:39:17;100138.27;;;13.53;100.00
70488;BME280;57976;48.174;16.370;2023-10-09T00:41:22;100133.43;;;13.57;100.00
70488;BME280;57976;48.174;16.370;2023-10-09T00:43:27;100129.80;;;13.59;99.97
70488;BME280;57976;48.174;16.370;2023-10-09T00:45:32;100125.15;;;13.59;99.84
70488;BME280;57976;48.174;16.370;2023-10-09T00:47:38;100125.60;;;13.59;99.71
70488;BME280;57976;48.174;16.370;2023-10-09T00:49:45;100118.94;;;13.60;99.31
70488;BME280;57976;48.174;16.370;2023-10-09T00:51:52;100111.11;;;13.60;99.23
70488;BME280;57976;48.174;16.370;2023-10-09T00:53:58;100104.52;;;13.61;99.34
70488;BME280;57976;48.174;16.370;2023-10-09T00:56:05;100103.63;;;13.62;99.24
70488;BME280;57976;48.174;16.370;2023-10-09T00:58:12;100098.23;;;13.63;99.49
70488;BME280;57976;48.174;16.370;2023-10-09T01:00:18;100095.02;;;13.63;99.54
70488;BME280;57976;48.174;16.370;2023-10-09T01:02:23;100092.16;;;13.63;99.53
70488;BME280;57976;48.174;16.370;2023-10-09T01:04:27;100087.43;;;13.61;99.65
70488;BME280;57976;48.174;16.370;2023-10-09T01:06:33;100081.64;;;13.60;99.75
70488;BME280;57976;48.174;16.370;2023-10-09T01:08:39;100083.14;;;13.59;99.99
70488;BME280;57976;48.174;16.370;2023-10-09T01:10:47;100083.38;;;13.60;99.83
70488;BME280;57976;48.174;16.370;2023-10-09T01:12:53;100083.95;;;13.59;99.55
70488;BME280;57976;48.174;16.370;2023-10-09T01:14:57;100079.63;;;13.56;99.70
70488;BME280;57976;48.174;16.370;2023-10-09T01:17:02;100075.00;;;13.53;99.80
70488;BME280;57976;48.174;16.370;2023-10-09T01:19:07;100074.22;;;13.53;99.93
70488;BME280;57976;48.174;16.370;2023-10-09T01:21:12;100075.20;;;13.55;99.94
70488;BME280;57976;48.174;16.370;2023-10-09T01:23:18;100072.33;;;13.53;99.96
70488;BME280;57976;48.174;16.370;2023-10-09T01:25:25;100073.25;;;13.56;99.94
70488;BME280;57976;48.174;16.370;2023-10-09T01:27:34;100075.02;;;13.57;99.95
70488;BME280;57976;48.174;16.370;2023-10-09T01:29:39;100070.86;;;13.56;99.98
70488;BME280;57976;48.174;16.370;2023-10-09T01:31:44;100069.98;;;13.56;100.00
70488;BME280;57976;48.174;16.370;2023-10-09T01:33:49;100059.18;;;13.54;100.00
70488;BME280;57976;48.174;16.370;2023-10-09T01:35:54;100051.08;;;13.55;100.00
70488;BME280;57976;48.174;16.370;2023-10-09T01:37:59;100047.58;;;13.55;100.00
70488;BME280;57976;48.174;16.370;2023-10-09T01:40:05;100050.98;;;13.54;100.00
70488;BME280;57976;48.174;16.370;2023-10-09T01:42:10;100054.00;;;13.55;100.00
70488;BME280;57976;48.174;16.370;2023-10-09T01:44:15;100054.37;;;13.54;100.00
70488;BME280;57976;48.174;16.370;2023-10-09T01:46:20;100051.36;;;13.53;100.00
70488;BME280;57976;48.174;16.370;2023-10-09T01:48:25;100051.56;;;13.52;100.00
70488;BME280;57976;48.174;16.370;2023-10-09T01:50:30;100049.87;;;13.51;100.00
70488;BME280;57976;48.174;16.370;2023-10-09T01:52:36;100051.27;;;13.48;100.00
70488;BME280;57976;48.174;16.370;2023-10-09T01:54:42;100039.03;;;13.48;100.00
70488;BME280;57976;48.174;16.370;2023-10-09T01:56:48;100039.36;;;13.48;100.00
70488;BME280;57976;48.174;16.370;2023-10-09T01:58:53;100035.25;;;13.47;100.00
70488;BME280;57976;48.174;16.370;2023-10-09T02:00:58;100034.88;;;13.45;100.00
70488;BME280;57976;48.174;16.370;2023-10-09T02:03:06;100034.58;;;13.41;100.00
70488;BME280;57976;48.174;16.370;2023-10-09T02:05:11;100040.02;;;13.37;100.00
70488;BME280;57976;48.174;16.370;2023-10-09T02:07:15;100041.38;;;13.34;100.00
70488;BME280;57976;48.174;16.370;2023-10-09T02:09:20;100035.27;;;13.32;100.00
70488;BME280;57976;48.174;16.370;2023-10-09T02:11:25;100035.89;;;13.31;100.00
70488;BME280;57976;48.174;16.370;2023-10-09T02:13:30;100031.65;;;13.29;100.00
70488;BME280;57976;48.174;16.370;2023-10-09T02:15:35;100028.09;;;13.26;100.00
70488;BME280;57976;48.174;16.370;2023-10-09T02:17:41;100020.56;;;13.23;100.00
70488;BME280;57976;48.174;16.370;2023-10-09T02:19:46;100016.05;;;13.19;100.00
70488;BME280;57976;48.174;16.370;2023-10-09T02:21:51;100011.12;;;13.17;100.00
70488;BME280;57976;48.174;16.370;2023-10-09T02:23:56;100000.56;;;13.13;100.00
70488;BME280;57976;48.174;16.370;2023-10-09T02:26:01;99995.02;;;13.08;100.00
70488;BME280;57976;48.174;16.370;2023-10-09T02:28:06;99989.35;;;13.04;100.00
70488;BME280;57976;48.174;16.370;2023-10-09T02:30:12;99992.80;;;13.03;100.00
70488;BME280;57976;48.174;16.370;2023-10-09T02:32:17;99991.23;;;13.03;100.00
70488;BME280;57976;48.174;16.370;2023-10-09T02:34:21;99989.63;;;13.03;100.00
70488;BME280;57976;48.174;16.370;2023-10-09T02:36:26;99976.54;;;13.04;100.00
70488;BME280;57976;48.174;16.370;2023-10-09T02:38:31;99980.16;;;13.03;100.00
70488;BME280;57976;48.174;16.370;2023-10-09T02:40:36;99980.83;;;13.02;100.00
70488;BME280;57976;48.174;16.370;2023-10-09T02:42:44;99982.05;;;13.02;100.00
70488;BME280;57976;48.174;16.370;2023-10-09T02:44:48;99976.98;;;13.03;100.00
70488;BME280;57976;48.174;16.370;2023-10-09T02:46:53;99968.14;;;13.01;100.00
70488;BME280;57976;48.174;16.370;2023-10-09T02:48:58;99971.08;;;12.98;100.00
70488;BME280;57976;48.174;16.370;2023-10-09T02:51:03;99970.05;;;12.96;100.00
70488;BME280;57976;48.174;16.370;2023-10-09T02:53:08;99966.91;;;12.93;100.00
70488;BME280;57976;48.174;16.370;2023-10-09T02:55:13;99957.48;;;12.89;100.00
70488;BME280;57976;48.174;16.370;2023-10-09T02:57:18;99952.06;;;12.86;100.00
70488;BME280;57976;48.174;16.370;2023-10-09T02:59:23;99950.34;;;12.85;100.00
70488;BME280;57976;48.174;16.370;2023-10-09T03:01:28;99956.48;;;12.88;100.00
70488;BME280;57976;48.174;16.370;2023-10-09T03:03:33;99953.73;;;12.90;100.00
70488;BME280;57976;48.174;16.370;2023-10-09T03:05:38;99947.62;;;12.93;100.00
70488;BME280;57976;48.174;16.370;2023-10-09T03:07:42;99946.96;;;12.97;100.00
70488;BME280;57976;48.174;16.370;2023-10-09T03:09:47;99941.91;;;13.00;100.00
70488;BME280;57976;48.174;16.370;2023-10-09T03:11:52;99938.79;;;13.02;100.00
70488;BME280;57976;48.174;16.370;2023-10-09T03:13:58;99934.57;;;13.03;100.00
70488;BME280;57976;48.174;16.370;2023-10-09T03:16:06;99929.80;;;13.04;100.00
70488;BME280;57976;48.174;16.370;2023-10-09T03:18:10;99922.47;;;13.02;100.00
70488;BME280;57976;48.174;16.370;2023-10-09T03:20:16;99920.40;;;13.02;100.00
70488;BME280;57976;48.174;16.370;2023-10-09T03:22:20;99916.83;;;13.01;100.00
70488;BME280;57976;48.174;16.370;2023-10-09T03:24:25;99916.70;;;13.00;100.00
70488;BME280;57976;48.174;16.370;2023-10-09T03:26:30;99918.46;;;12.99;100.00
70488;BME280;57976;48.174;16.370;2023-10-09T03:28:35;99913.48;;;12.98;100.00
70488;BME280;57976;48.174;16.370;2023-10-09T03:30:40;99910.03;;;12.98;100.00
70488;BME280;57976;48.174;16.370;2023-10-09T03:32:45;99903.23;;;13.00;100.00
70488;BME280;57976;48.174;16.370;2023-10-09T03:34:50;99906.34;;;13.01;100.00
70488;BME280;57976;48.174;16.370;2023-10-09T03:36:55;99898.02;;;12.99;100.00
70488;BME280;57976;48.174;16.370;2023-10-09T03:39:01;99889.34;;;12.99;100.00
70488;BME280;57976;48.174;16.370;2023-10-09T03:41:08;99891.85;;;12.99;100.00
70488;BME280;57976;48.174;16.370;2023-10-09T03:43:13;99884.47;;;12.97;100.00
70488;BME280;57976;48.174;16.370;2023-10-09T03:45:18;99875.95;;;12.96;100.00
70488;BME280;57976;48.174;16.370;2023-10-09T03:47:23;99868.70;;;12.94;100.00
70488;BME280;57976;48.174;16.370;2023-10-09T03:49:27;99868.75;;;12.96;100.00
70488;BME280;57976;48.174;16.370;2023-10-09T03:51:32;99866.29;;;12.97;100.00
70488;BME280;57976;48.174;16.370;2023-10-09T03:53:37;99869.41;;;12.99;100.00
70488;BME280;57976;48.174;16.370;2023-10-09T03:55:42;99862.35;;;13.00;100.00
70488;BME280;57976;48.174;16.370;2023-10-09T03:57:47;99858.84;;;13.00;100.00
70488;BME280;57976;48.174;16.370;2023-10-09T03:59:52;99852.05;;;12.94;100.00
70488;BME280;57976;48.174;16.370;2023-10-09T04:01:57;99848.88;;;12.90;100.00
70488;BME280;57976;48.174;16.370;2023-10-09T04:04:01;99854.82;;;12.87;100.00
70488;BME280;57976;48.174;16.370;2023-10-09T04:06:07;99848.08;;;12.86;100.00
70488;BME280;57976;48.174;16.370;2023-10-09T04:08:13;99837.75;;;12.84;100.00
70488;BME280;57976;48.174;16.370;2023-10-09T04:10:17;99834.54;;;12.83;100.00
70488;BME280;57976;48.174;16.370;2023-10-09T04:12:22;99832.60;;;12.80;100.00
70488;BME280;57976;48.174;16.370;2023-10-09T04:14:28;99833.98;;;12.78;100.00
70488;BME280;57976;48.174;16.370;2023-10-09T04:16:33;99834.50;;;12.71;100.00
70488;BME280;57976;48.174;16.370;2023-10-09T04:18:38;99829.97;;;12.65;100.00
70488;BME280;57976;48.174;16.370;2023-10-09T04:20:46;99823.30;;;12.62;100.00
70488;BME280;57976;48.174;16.370;2023-10-09T04:22:51;99816.48;;;12.55;100.00
70488;BME280;57976;48.174;16.370;2023-10-09T04:24:58;99811.68;;;12.51;100.00
70488;BME280;57976;48.174;16.370;2023-10-09T04:27:02;99807.67;;;12.49;100.00
70488;BME280;57976;48.174;16.370;2023-10-09T04:29:07;99806.77;;;12.46;100.00
70488;BME280;57976;48.174;16.370;2023-10-09T04:31:12;99802.71;;;12.42;100.00
70488;BME280;57976;48.174;16.370;2023-10-09T04:33:17;99797.90;;;12.37;100.00
70488;BME280;57976;48.174;16.370;2023-10-09T04:35:21;99797.20;;;12.34;100.00
70488;BME280;57976;48.174;16.370;2023-10-09T04:37:26;99802.04;;;12.32;100.00
70488;BME280;57976;48.174;16.370;2023-10-09T04:39:31;99807.70;;;12.31;100.00
70488;BME280;57976;48.174;16.370;2023-10-09T04:41:36;99813.04;;;12.30;100.00
70488;BME280;57976;48.174;16.370;2023-10-09T04:43:41;99817.47;;;12.28;100.00
70488;BME280;57976;48.174;16.370;2023-10-09T04:45:46;99810.15;;;12.25;100.00
70488;BME280;57976;48.174;16.370;2023-10-09T04:47:51;99803.44;;;12.23;100.00
70488;BME280;57976;48.174;16.370;2023-10-09T04:49:56;99797.07;;;12.23;100.00
70488;BME280;57976;48.174;16.370;2023-10-09T04:52:00;99794.35;;;12.21;100.00
70488;BME280;57976;48.174;16.370;2023-10-09T04:54:06;99795.30;;;12.20;100.00
70488;BME280;57976;48.174;16.370;2023-10-09T04:56:11;99785.41;;;12.18;100.00
70488;BME280;57976;48.174;16.370;2023-10-09T04:58:18;99777.57;;;12.17;100.00
70488;BME280;57976;48.174;16.370;2023-10-09T05:00:23;99776.20;;;12.16;100.00
70488;BME280;57976;48.174;16.370;2023-10-09T05:02:28;99774.03;;;12.17;100.00
70488;BME280;57976;48.174;16.370;2023-10-09T05:04:33;99773.78;;;12.16;100.00
70488;BME280;57976;48.174;16.370;2023-10-09T05:06:37;99769.78;;;12.14;100.00
70488;BME280;57976;48.174;16.370;2023-10-09T05:08:42;99766.61;;;12.12;100.00
70488;BME280;57976;48.174;16.370;2023-10-09T05:10:48;99759.33;;;12.08;100.00
70488;BME280;57976;48.174;16.370;2023-10-09T05:12:53;99754.17;;;12.04;100.00
70488;BME280;57976;48.174;16.370;2023-10-09T05:14:58;99750.64;;;12.03;100.00
70488;BME280;57976;48.174;16.370;2023-10-09T05:17:03;99748.59;;;12.02;100.00
70488;BME280;57976;48.174;16.370;2023-10-09T05:19:11;99746.79;;;12.05;100.00
70488;BME280;57976;48.174;16.370;2023-10-09T05:21:16;99738.61;;;12.06;100.00
70488;BME280;57976;48.174;16.370;2023-10-09T05:23:21;99731.23;;;12.08;100.00
70488;BME280;57976;48.174;16.370;2023-10-09T05:25:26;99719.60;;;12.08;100.00
70488;BME280;57976;48.174;16.370;2023-10-09T05:27:31;99716.89;;;12.10;100.00
70488;BME280;57976;48.174;16.370;2023-10-09T05:29:36;99707.98;;;12.11;100.00
70488;BME280;57976;48.174;16.370;2023-10-09T05:31:41;99701.15;;;12.10;100.00
70488;BME280;57976;48.174;16.370;2023-10-09T05:33:46;99699.64;;;12.08;100.00
70488;BME280;57976;48.174;16.370;2023-10-09T05:35:50;99692.04;;;12.07;100.00
70488;BME280;57976;48.174;16.370;2023-10-09T05:37:55;99694.25;;;12.08;100.00
70488;BME280;57976;48.174;16.370;2023-10-09T05:40:02;99696.59;;;12.06;100.00
70488;BME280;57976;48.174;16.370;2023-10-09T05:42:07;99695.48;;;12.05;100.00
70488;BME280;57976;48.174;16.370;2023-10-09T05:44:12;99697.98;;;12.09;100.00
70488;BME280;57976;48.174;16.370;2023-10-09T05:46:17;99696.40;;;12.13;100.00
70488;BME280;57976;48.174;16.370;2023-10-09T05:48:22;99692.91;;;12.15;100.00
70488;BME280;57976;48.174;16.370;2023-10-09T05:50:28;99694.60;;;12.14;100.00
70488;BME280;57976;48.174;16.370;2023-10-09T05:52:33;99689.46;;;12.15;100.00
70488;BME280;57976;48.174;16.370;2023-10-09T05:54:38;99687.13;;;12.18;100.00
70488;BME280;57976;48.174;16.370;2023-10-09T05:56:42;99690.33;;;12.22;100.00
70488;BME280;57976;48.174;16.370;2023-10-09T05:58:47;99695.00;;;12.26;100.00
70488;BME280;57976;48.174;16.370;2023-10-09T06:00:52;99693.61;;;12.30;100.00
70488;BME280;57976;48.174;16.370;2023-10-09T06:02:57;99685.84;;;12.33;100.00
70488;BME280;57976;48.174;16.370;2023-10-09T06:05:08;99683.09;;;12.36;100.00
70488;BME280;57976;48.174;16.370;2023-10-09T06:07:13;99671.74;;;12.37;100.00
70488;BME280;57976;48.174;16.370;2023-10-09T06:09:18;99664.63;;;12.37;100.00
70488;BME280;57976;48.174;16.370;2023-10-09T06:11:23;99663.16;;;12.40;100.00
70488;BME280;57976;48.174;16.370;2023-10-09T06:13:28;99662.18;;;12.44;100.00
70488;BME280;57976;48.174;16.370;2023-10-09T06:15:38;99653.42;;;12.50;100.00
70488;BME280;57976;48.174;16.370;2023-10-09T06:17:43;99647.17;;;12.56;100.00
70488;BME280;57976;48.174;16.370;2023-10-09T06:19:48;99643.92;;;12.61;100.00
70488;BME280;57976;48.174;16.370;2023-10-09T06:21:53;99638.61;;;12.65;100.00
70488;BME280;57976;48.174;16.370;2023-10-09T06:24:01;99640.23;;;12.70;100.00
70488;BME280;57976;48.174;16.370;2023-10-09T06:26:05;99649.80;;;12.76;100.00
70488;BME280;57976;48.174;16.370;2023-10-09T06:28:10;99650.70;;;12.82;100.00
70488;BME280;57976;48.174;16.370;2023-10-09T06:30:15;99652.96;;;12.86;99.85
70488;BME280;57976;48.174;16.370;2023-10-09T06:32:20;99655.42;;;12.90;99.34
70488;BME280;57976;48.174;16.370;2023-10-09T06:34:25;99650.48;;;12.94;98.96
70488;BME280;57976;48.174;16.370;2023-10-09T06:36:31;99649.12;;;12.96;98.73
70488;BME280;57976;48.174;16.370;2023-10-09T06:38:36;99647.23;;;12.98;98.25
70488;BME280;57976;48.174;16.370;2023-10-09T06:40:40;99647.55;;;12.98;98.05
70488;BME280;57976;48.174;16.370;2023-10-09T06:42:51;99642.74;;;13.00;97.97
70488;BME280;57976;48.174;16.370;2023-10-09T06:44:58;99637.24;;;13.06;97.85
70488;BME280;57976;48.174;16.370;2023-10-09T06:47:03;99633.58;;;13.08;97.35
70488;BME280;57976;48.174;16.370;2023-10-09T06:49:08;99627.63;;;13.07;97.31
70488;BME280;57976;48.174;16.370;2023-10-09T06:51:13;99615.23;;;13.07;97.27
70488;BME280;57976;48.174;16.370;2023-10-09T06:53:18;99608.67;;;13.10;97.18
70488;BME280;57976;48.174;16.370;2023-10-09T06:55:37;99598.33;;;13.18;97.36
70488;BME280;57976;48.174;16.370;2023-10-09T06:57:42;99600.55;;;13.29;97.90
70488;BME280;57976;48.174;16.370;2023-10-09T06:59:47;99606.02;;;13.41;97.28
70488;BME280;57976;48.174;16.370;2023-10-09T07:01:52;99599.98;;;13.49;96.57
70488;BME280;57976;48.174;16.370;2023-10-09T07:03:57;99599.45;;;13.57;95.71
70488;BME280;57976;48.174;16.370;2023-10-09T07:06:11;99588.38;;;13.62;95.28
70488;BME280;57976;48.174;16.370;2023-10-09T07:08:16;99596.13;;;13.72;95.22
70488;BME280;57976;48.174;16.370;2023-10-09T07:10:21;99601.73;;;13.77;94.45
70488;BME280;57976;48.174;16.370;2023-10-09T07:12:25;99604.31;;;13.85;94.39
70488;BME280;57976;48.174;16.370;2023-10-09T07:14:33;99609.81;;;13.97;94.74
70488;BME280;57976;48.174;16.370;2023-10-09T07:16:38;99604.85;;;14.06;92.54
70488;BME280;57976;48.174;16.370;2023-10-09T07:18:43;99609.02;;;14.07;92.33
70488;BME280;57976;48.174;16.370;2023-10-09T07:20:48;99602.16;;;14.07;92.62
70488;BME280;57976;48.174;16.370;2023-10-09T07:22:53;99609.16;;;14.10;92.81
70488;BME280;57976;48.174;16.370;2023-10-09T07:24:58;99602.70;;;14.13;92.77
70488;BME280;57976;48.174;16.370;2023-10-09T07:27:04;99595.99;;;14.16;92.20
70488;BME280;57976;48.174;16.370;2023-10-09T07:29:08;99599.14;;;14.16;92.08
70488;BME280;57976;48.174;16.370;2023-10-09T07:31:20;99585.02;;;14.17;92.00
70488;BME280;57976;48.174;16.370;2023-10-09T07:33:25;99588.57;;;14.17;92.02
70488;BME280;57976;48.174;16.370;2023-10-09T07:35:32;99600.40;;;14.23;91.43
70488;BME280;57976;48.174;16.370;2023-10-09T07:37:36;99584.20;;;14.29;90.71
70488;BME280;57976;48.174;16.370;2023-10-09T07:39:41;99582.00;;;14.31;91.09
70488;BME280;57976;48.174;16.370;2023-10-09T07:41:46;99583.48;;;14.34;90.94
70488;BME280;57976;48.174;16.370;2023-10-09T07:43:51;99570.09;;;14.39;90.97
70488;BME280;57976;48.174;16.370;2023-10-09T07:45:56;99578.21;;;14.48;91.51
70488;BME280;57976;48.174;16.370;2023-10-09T07:48:01;99568.00;;;14.56;90.78
70488;BME280;57976;48.174;16.370;2023-10-09T07:50:07;99567.16;;;14.61;90.40
70488;BME280;57976;48.174;16.370;2023-10-09T07:52:12;99572.27;;;14.62;90.15
70488;BME280;57976;48.174;16.370;2023-10-09T07:54:17;99567.79;;;14.64;90.13
70488;BME280;57976;48.174;16.370;2023-10-09T07:56:22;99577.11;;;14.69;90.00
70488;BME280;57976;48.174;16.370;2023-10-09T07:58:27;99578.13;;;14.71;89.81
70488;BME280;57976;48.174;16.370;2023-10-09T08:00:33;99568.95;;;14.69;89.55
70488;BME280;57976;48.174;16.370;2023-10-09T08:02:41;99564.39;;;14.65;89.66
70488;BME280;57976;48.174;16.370;2023-10-09T08:04:46;99563.59;;;14.60;89.52
70488;BME280;57976;48.174;16.370;2023-10-09T08:06:51;99571.33;;;14.57;90.07
70488;BME280;57976;48.174;16.370;2023-10-09T08:09:16;99572.05;;;14.59;90.28
70488;BME280;57976;48.174;16.370;2023-10-09T08:11:26;99566.45;;;14.54;90.05
70488;BME280;57976;48.174;16.370;2023-10-09T08:13:31;99562.79;;;14.53;90.36
70488;BME280;57976;48.174;16.370;2023-10-09T08:15:36;99552.67;;;14.54;90.30
70488;BME280;57976;48.174;16.370;2023-10-09T08:17:41;99544.31;;;14.56;90.98
70488;BME280;57976;48.174;16.370;2023-10-09T08:19:50;99544.50;;;14.59;91.02
70488;BME280;57976;48.174;16.370;2023-10-09T08:21:54;99552.55;;;14.66;90.81
70488;BME280;57976;48.174;16.370;2023-10-09T08:23:59;99544.36;;;14.72;91.10
70488;BME280;57976;48.174;16.370;2023-10-09T08:26:04;99540.57;;;14.81;90.30
70488;BME280;57976;48.174;16.370;2023-10-09T08:28:09;99537.96;;;14.87;90.15
70488;BME280;57976;48.174;16.370;2023-10-09T08:30:14;99535.91;;;14.94;90.08
70488;BME280;57976;48.174;16.370;2023-10-09T08:32:19;99542.50;;;15.03;89.76
70488;BME280;57976;48.174;16.370;2023-10-09T08:34:27;99536.39;;;15.09;89.46
70488;BME280;57976;48.174;16.370;2023-10-09T08:36:35;99534.88;;;15.15;89.42
70488;BME280;57976;48.174;16.370;2023-10-09T08:38:40;99539.00;;;15.22;88.87
70488;BME280;57976;48.174;16.370;2023-10-09T08:40:45;99543.39;;;15.25;89.21
70488;BME280;57976;48.174;16.370;2023-10-09T08:42:54;99541.98;;;15.35;88.87
70488;BME280;57976;48.174;16.370;2023-10-09T08:44:59;99533.44;;;15.42;88.55
70488;BME280;57976;48.174;16.370;2023-10-09T08:47:05;99528.30;;;15.50;88.11
70488;BME280;57976;48.174;16.370;2023-10-09T08:49:11;99529.07;;;15.57;87.68
70488;BME280;57976;48.174;16.370;2023-10-09T08:51:18;99525.10;;;15.64;87.61
70488;BME280;57976;48.174;16.370;2023-10-09T08:53:24;99517.05;;;15.75;87.81
70488;BME280;57976;48.174;16.370;2023-10-09T08:55:29;99511.55;;;15.93;87.41
70488;BME280;57976;48.174;16.370;2023-10-09T08:57:34;99506.67;;;16.06;86.37
70488;BME280;57976;48.174;16.370;2023-10-09T08:59:43;99503.70;;;16.15;86.21
70488;BME280;57976;48.174;16.370;2023-10-09T09:01:51;99498.42;;;16.29;85.87
70488;BME280;57976;48.174;16.370;2023-10-09T09:03:57;99495.84;;;16.39;85.35
70488;BME280;57976;48.174;16.370;2023-10-09T09:06:04;99496.86;;;16.50;84.99
70488;BME280;57976;48.174;16.370;2023-10-09T09:08:23;99491.87;;;16.55;84.45
70488;BME280;57976;48.174;16.370;2023-10-09T09:10:31;99489.13;;;16.57;84.35
70488;BME280;57976;48.174;16.370;2023-10-09T09:12:39;99487.94;;;16.64;84.13
70488;BME280;57976;48.174;16.370;2023-10-09T09:14:44;99485.89;;;16.69;83.67
70488;BME280;57976;48.174;16.370;2023-10-09T09:16:49;99479.46;;;16.75;83.61
70488;BME280;57976;48.174;16.370;2023-10-09T09:18:58;99476.31;;;16.84;83.30
70488;BME280;57976;48.174;16.370;2023-10-09T09:21:04;99474.80;;;16.94;83.16
70488;BME280;57976;48.174;16.370;2023-10-09T09:23:21;99476.39;;;16.96;82.61
70488;BME280;57976;48.174;16.370;2023-10-09T09:25:40;99478.89;;;16.94;82.43
70488;BME280;57976;48.174;16.370;2023-10-09T09:27:46;99474.89;;;16.98;82.85
70488;BME280;57976;48.174;16.370;2023-10-09T09:29:51;99476.38;;;17.04;82.55
70488;BME280;57976;48.174;16.370;2023-10-09T09:31:57;99477.08;;;17.12;82.66
70488;BME280;57976;48.174;16.370;2023-10-09T09:34:02;99481.27;;;17.19;82.30
70488;BME280;57976;48.174;16.370;2023-10-09T09:36:08;99475.12;;;17.26;81.81
70488;BME280;57976;48.174;16.370;2023-10-09T09:38:13;99478.45;;;17.32;81.72
70488;BME280;57976;48.174;16.370;2023-10-09T09:40:18;99476.06;;;17.39;81.60
70488;BME280;57976;48.174;16.370;2023-10-09T09:42:24;99471.06;;;17.48;81.41
70488;BME280;57976;48.174;16.370;2023-10-09T09:44:29;99473.21;;;17.58;80.44
70488;BME280;57976;48.174;16.370;2023-10-09T09:46:35;99475.80;;;17.68;80.47
70488;BME280;57976;48.174;16.370;2023-10-09T09:48:40;99480.69;;;17.78;79.35
70488;BME280;57976;48.174;16.370;2023-10-09T09:50:46;99480.94;;;17.87;78.86
70488;BME280;57976;48.174;16.370;2023-10-09T09:52:51;99481.05;;;17.93;78.47
70488;BME280;57976;48.174;16.370;2023-10-09T09:54:56;99487.48;;;18.01;78.27
70488;BME280;57976;48.174;16.370;2023-10-09T09:57:04;99484.68;;;18.14;79.02
70488;BME280;57976;48.174;16.370;2023-10-09T09:59:11;99484.61;;;18.31;78.37
70488;BME280;57976;48.174;16.370;2023-10-09T10:01:18;99497.49;;;18.49;77.78
70488;BME280;57976;48.174;16.370;2023-10-09T10:03:26;99487.19;;;18.65;77.39
70488;BME280;57976;48.174;16.370;2023-10-09T10:05:35;99497.34;;;18.77;76.36
70488;BME280;57976;48.174;16.370;2023-10-09T10:07:41;99493.09;;;18.86;76.05
70488;BME280;57976;48.174;16.370;2023-10-09T10:09:46;99489.25;;;18.94;75.60
70488;BME280;57976;48.174;16.370;2023-10-09T10:11:51;99496.13;;;19.00;75.20
70488;BME280;57976;48.174;16.370;2023-10-09T10:13:57;99490.13;;;19.08;75.17
70488;BME280;57976;48.174;16.370;2023-10-09T10:16:06;99489.92;;;19.18;74.57
70488;BME280;57976;48.174;16.370;2023-10-09T10:18:11;99488.81;;;19.25;74.22
70488;BME280;57976;48.174;16.370;2023-10-09T10:20:16;99487.99;;;19.28;73.70
70488;BME280;57976;48.174;16.370;2023-10-09T10:22:28;99491.38;;;19.31;73.65
70488;BME280;57976;48.174;16.370;2023-10-09T10:24:45;99492.67;;;19.38;73.77
70488;BME280;57976;48.174;16.370;2023-10-09T10:27:16;99494.66;;;19.47;73.33
70488;BME280;57976;48.174;16.370;2023-10-09T10:29:21;99497.52;;;19.57;73.14
70488;BME280;57976;48.174;16.370;2023-10-09T10:31:55;99494.67;;;19.64;72.52
70488;BME280;57976;48.174;16.370;2023-10-09T10:34:06;99489.38;;;19.70;72.41
70488;BME280;57976;48.174;16.370;2023-10-09T10:36:11;99492.27;;;19.77;72.50
70488;BME280;57976;48.174;16.370;2023-10-09T10:38:27;99491.99;;;19.83;71.92
70488;BME280;57976;48.174;16.370;2023-10-09T10:40:32;99508.09;;;19.92;71.50
70488;BME280;57976;48.174;16.370;2023-10-09T10:42:37;99504.80;;;19.99;70.61
70488;BME280;57976;48.174;16.370;2023-10-09T10:44:56;99513.58;;;20.02;69.87
70488;BME280;57976;48.174;16.370;2023-10-09T10:47:01;99501.92;;;20.00;69.95
70488;BME280;57976;48.174;16.370;2023-10-09T10:49:07;99506.86;;;19.95;70.35
70488;BME280;57976;48.174;16.370;2023-10-09T10:51:13;99507.83;;;19.94;70.42
70488;BME280;57976;48.174;16.370;2023-10-09T10:53:18;99509.26;;;19.92;70.23